Etusivu
METAR-TAF:

METAR-TAF

Lentoasemat :

Kindersley, Saskatchewan, Kanada

Leveyspiiri: 51-31N, Pituuspiiri: 109-10W, korkeus merenpinnasta: 694 m

Tämänhetkinen sää

Tämä raportti tehtiin 42 minuuttia sitten, kello 00.00 UTC
Tuuli 20 kn lännestä/luoteesta puuskistuen 30 kn:hen
Lämpötila 12°C
Kosteus 15%
Ilmanpaine 1020 hPa
Näkyvyys: 24.1 km
Muutamia pilviä 9000 ft:n korkeudessa
Muutamia pilviä 11000 ft:n korkeudessa
Muutamia pilviä 26000 ft:n korkeudessa

METAR: CYKY 260000Z 30020G30KT 15SM FEW090 FEW110 FEW260 12/M14 A3012 RMK CU1AC1CI1 AC TR CI TR SLP222 DENSITY ALT 2300FT

Aika: 18:42 (00:42 UTC)


TAF: puuttuu

Säähavainnot ja -ennusteet yli 4000 lentoasemalta (METAR- ja TAF-raportit).

Käytössä olevat sääasemat on merkitty karttaan keltaisilla ja punaisilla pisteillä.

Aseta hiiri pisteen päälle nähdäksesi sääaseman nimen.

Klikkaa sitten nähdäksesi säähavainnot ja -ennusteet.

Kartan vaihtaminen: klikkaa mustalla rastilla varustettuja vihreitä pisteitä, niin voit zoomata sisään; viivalla varustettua vihreää pistettä, niin voit zoomata ulos tai vihreitä nuolia, niin pääset viereisille kartoille.


METAR-TAF: